REGA4 LSZB-LSZB

Flight info

Callsign REGA4
Flight time N/A
Altitude 1500
Route ROP
Aircraft EC30/L-SDGRY/S

Departure

Time 2026-05-06 10:18
Airport Bern Airport (LSZB)

Arrival

Time N/A
Airport Bern Airport (LSZB)
Time Latitude Longitude Altitude Speed Heading
2026-05-06 10:13 46.91075 7.50351 1678 ft 0 kts 320°
2026-05-06 10:16 46.91076 7.50351 1678 ft 1 kts 312°
2026-05-06 10:17 46.91021 7.50355 1726 ft 17 kts 165°
2026-05-06 10:17 46.90953 7.50242 1789 ft 35 kts 285°
2026-05-06 10:17 46.91120 7.49830 1982 ft 55 kts 300°
2026-05-06 10:17 46.91339 7.49246 2114 ft 76 kts 301°
2026-05-06 10:18 46.91648 7.48550 2228 ft 89 kts 299°
2026-05-06 10:18 46.91982 7.47754 2349 ft 96 kts 302°
2026-05-06 10:18 46.92381 7.46924 2405 ft 106 kts 304°
2026-05-06 10:18 46.92827 7.46018 2378 ft 116 kts 305°
2026-05-06 10:19 46.93340 7.45077 2256 ft 114 kts 304°
2026-05-06 10:19 46.93777 7.44134 2226 ft 108 kts 304°
2026-05-06 10:19 46.94205 7.43251 2216 ft 105 kts 300°
2026-05-06 10:19 46.94355 7.42233 2174 ft 106 kts 263°
2026-05-06 10:20 46.94210 7.41215 2219 ft 100 kts 257°
2026-05-06 10:20 46.94001 7.40227 2180 ft 103 kts 248°
2026-05-06 10:20 46.93644 7.39343 2219 ft 100 kts 236°
2026-05-06 10:20 46.93229 7.38523 2245 ft 99 kts 236°
2026-05-06 10:21 46.92821 7.37740 2307 ft 96 kts 231°
2026-05-06 10:21 46.92361 7.37043 2330 ft 94 kts 225°
2026-05-06 10:21 46.91908 7.36431 2474 ft 84 kts 222°
2026-05-06 10:21 46.91408 7.35906 2532 ft 92 kts 210°
2026-05-06 10:22 46.90836 7.35506 2659 ft 93 kts 200°
2026-05-06 10:22 46.90168 7.35185 2503 ft 114 kts 214°
2026-05-06 10:22 46.89593 7.34312 2334 ft 121 kts 228°
2026-05-06 10:22 46.89250 7.33678 2305 ft 119 kts 237°
2026-05-06 10:23 46.88622 7.32356 2339 ft 103 kts 236°
2026-05-06 10:23 46.88241 7.31602 2624 ft 84 kts 232°
2026-05-06 10:23 46.87989 7.31139 2696 ft 88 kts 230°
2026-05-06 10:23 46.87539 7.30502 2758 ft 95 kts 223°
2026-05-06 10:24 46.87092 7.29792 2834 ft 95 kts 229°
2026-05-06 10:24 46.86666 7.29019 2843 ft 99 kts 233°
2026-05-06 10:24 46.86270 7.28154 2841 ft 105 kts 239°
2026-05-06 10:24 46.85909 7.27325 3077 ft 91 kts 234°
2026-05-06 10:25 46.85530 7.26586 3163 ft 93 kts 231°
2026-05-06 10:25 46.85140 7.25806 3232 ft 94 kts 237°
2026-05-06 10:25 46.84827 7.24984 3280 ft 94 kts 242°
2026-05-06 10:25 46.84454 7.24157 3276 ft 103 kts 237°
2026-05-06 10:26 46.84013 7.23252 3122 ft 115 kts 233°
2026-05-06 10:26 46.83498 7.22351 3072 ft 114 kts 230°
2026-05-06 10:26 46.83014 7.21469 3095 ft 108 kts 233°
2026-05-06 10:26 46.82581 7.20612 3129 ft 103 kts 233°
2026-05-06 10:27 46.82135 7.19811 3117 ft 103 kts 231°
2026-05-06 10:27 46.81703 7.19020 3190 ft 96 kts 232°
2026-05-06 10:27 46.81240 7.18308 3146 ft 105 kts 221°
2026-05-06 10:27 46.80700 7.17581 3142 ft 104 kts 233°
2026-05-06 10:28 46.80285 7.16692 3146 ft 105 kts 235°
2026-05-06 10:28 46.79865 7.15816 3140 ft 105 kts 234°
2026-05-06 10:28 46.79418 7.14965 3072 ft 110 kts 230°
2026-05-06 10:28 46.78854 7.14248 3057 ft 111 kts 219°
2026-05-06 10:29 46.78348 7.13432 3062 ft 107 kts 227°
2026-05-06 10:29 46.77845 7.12660 3084 ft 105 kts 230°
2026-05-06 10:29 46.77351 7.11830 2949 ft 113 kts 230°
2026-05-06 10:29 46.76871 7.10935 2923 ft 110 kts 237°
2026-05-06 10:30 46.76446 7.10006 2900 ft 109 kts 234°
2026-05-06 10:30 46.76029 7.09118 2941 ft 105 kts 237°
2026-05-06 10:30 46.75894 7.08816 2952 ft 106 kts 237°
2026-05-06 10:30 46.75615 7.08201 2937 ft 106 kts 236°
2026-05-06 10:31 46.75113 7.07482 3014 ft 96 kts 230°
2026-05-06 10:31 46.74749 7.06650 3010 ft 103 kts 235°
2026-05-06 10:31 46.74375 7.05803 3143 ft 94 kts 241°
2026-05-06 10:31 46.74028 7.04970 3132 ft 98 kts 237°
2026-05-06 10:32 46.73681 7.04110 3156 ft 98 kts 238°
2026-05-06 10:32 46.73353 7.03250 3211 ft 94 kts 243°
2026-05-06 10:32 46.73071 7.02433 3337 ft 86 kts 242°
2026-05-06 10:32 46.72816 7.01684 3462 ft 81 kts 243°
2026-05-06 10:33 46.72499 7.00822 3285 ft 107 kts 236°
2026-05-06 10:33 46.72128 6.99858 3194 ft 112 kts 243°
2026-05-06 10:33 46.71766 6.98865 3235 ft 109 kts 243°
2026-05-06 10:33 46.71470 6.97840 3245 ft 110 kts 250°
2026-05-06 10:34 46.71135 6.96856 3248 ft 108 kts 237°
2026-05-06 10:34 46.70793 6.95931 3300 ft 105 kts 243°
2026-05-06 10:34 46.70434 6.94989 3226 ft 106 kts 240°
2026-05-06 10:34 46.70089 6.94033 3161 ft 109 kts 240°
2026-05-06 10:35 46.69705 6.93083 3118 ft 106 kts 237°
2026-05-06 10:35 46.69340 6.92180 3176 ft 103 kts 243°
2026-05-06 10:35 46.69004 6.91261 3130 ft 107 kts 238°
2026-05-06 10:35 46.68585 6.90295 2973 ft 111 kts 235°
2026-05-06 10:36 46.68182 6.89369 3005 ft 107 kts 237°
2026-05-06 10:36 46.67772 6.88447 3019 ft 105 kts 239°
2026-05-06 10:36 46.67463 6.87502 3042 ft 103 kts 247°
2026-05-06 10:36 46.67166 6.86555 3072 ft 102 kts 243°
2026-05-06 10:37 46.66850 6.85677 3178 ft 96 kts 240°
2026-05-06 10:37 46.66541 6.84781 3210 ft 101 kts 244°
2026-05-06 10:37 46.66220 6.83850 3206 ft 105 kts 239°
2026-05-06 10:37 46.65834 6.82927 3154 ft 108 kts 235°
2026-05-06 10:38 46.65406 6.82019 3186 ft 108 kts 232°
2026-05-06 10:38 46.64939 6.81170 3298 ft 106 kts 230°
2026-05-06 10:38 46.64469 6.80335 3366 ft 108 kts 229°
2026-05-06 10:38 46.63964 6.79565 3430 ft 105 kts 225°
2026-05-06 10:39 46.63454 6.78821 3444 ft 103 kts 226°
2026-05-06 10:39 46.62952 6.78077 3501 ft 103 kts 226°
2026-05-06 10:39 46.62499 6.77272 3477 ft 104 kts 231°
2026-05-06 10:39 46.62050 6.76445 3487 ft 106 kts 234°
2026-05-06 10:40 46.61636 6.75593 3511 ft 102 kts 236°
2026-05-06 10:40 46.61235 6.74788 3642 ft 97 kts 230°
2026-05-06 10:40 46.60796 6.74046 3670 ft 99 kts 226°
2026-05-06 10:40 46.60330 6.73410 3855 ft 85 kts 219°
2026-05-06 10:41 46.59866 6.72865 3930 ft 88 kts 214°
2026-05-06 10:41 46.59378 6.72293 3948 ft 91 kts 219°
2026-05-06 10:41 46.58873 6.71714 3979 ft 94 kts 214°
2026-05-06 10:41 46.58349 6.71141 4028 ft 94 kts 216°
2026-05-06 10:42 46.57799 6.70490 3845 ft 109 kts 218°
2026-05-06 10:42 46.57181 6.69781 3634 ft 116 kts 216°
2026-05-06 10:42 46.56512 6.69079 3393 ft 119 kts 217°
2026-05-06 10:42 46.55865 6.68348 3181 ft 120 kts 218°
2026-05-06 10:43 46.55179 6.67661 3024 ft 115 kts 214°
2026-05-06 10:43 46.54534 6.66975 2944 ft 112 kts 215°
2026-05-06 10:43 46.53898 6.66411 2928 ft 107 kts 215°
2026-05-06 10:44 46.52671 6.65077 2543 ft 120 kts 220°
2026-05-06 10:44 46.52025 6.64337 2487 ft 114 kts 218°
2026-05-06 10:44 46.51387 6.63765 2515 ft 106 kts 211°
2026-05-06 10:44 46.50740 6.63289 2485 ft 105 kts 213°
2026-05-06 10:45 46.50282 6.62425 2015 ft 102 kts 248°
2026-05-06 10:45 46.50601 6.62059 1602 ft 87 kts 32°
2026-05-06 10:45 46.50792 6.62614 1564 ft 55 kts 122°
2026-05-06 10:45 46.50572 6.63019 1383 ft 36 kts 242°
2026-05-06 10:46 46.50615 6.62803 1350 ft 28 kts 272°
2026-05-06 10:46 46.50672 6.62569 1252 ft 10 kts 293°
2026-05-06 10:46 46.50678 6.62548 1224 ft 0 kts 207°
2026-05-06 10:52 46.50672 6.62564 1268 ft 11 kts 98°
2026-05-06 10:53 46.50804 6.62714 1602 ft 33 kts 353°
2026-05-06 10:53 46.51203 6.62911 1878 ft 85 kts 29°
2026-05-06 10:53 46.51689 6.63480 1970 ft 85 kts 41°
2026-05-06 10:53 46.52096 6.63929 2147 ft 64 kts 31°
2026-05-06 10:54 46.52354 6.64087 2111 ft 22 kts 15°
2026-05-06 10:54 46.52459 6.64063 2002 ft 21 kts 72°
2026-05-06 10:54 46.52445 6.64215 2099 ft 27 kts 349°
2026-05-06 10:54 46.52437 6.64128 1987 ft 7 kts
2026-05-06 10:55 46.52450 6.64172 2010 ft 5 kts 81°
2026-05-06 10:55 46.52477 6.64205 2277 ft 18 kts 202°
2026-05-06 10:55 46.52350 6.64048 2098 ft 4 kts 15°
2026-05-06 10:55 46.52485 6.64096 2001 ft 10 kts 343°
2026-05-06 10:56 46.52399 6.64179 2069 ft 58 kts 137°
2026-05-06 10:56 46.52396 6.64172 1989 ft 21 kts 311°
2026-05-06 10:56 46.52454 6.64094 1905 ft 0 kts 333°
2026-05-06 10:56 46.52455 6.64096 1905 ft 1 kts 356°
2026-05-06 10:57 46.52458 6.64095 1906 ft 0 kts 45°
2026-05-06 10:57 46.52456 6.64098 1907 ft 0 kts 95°
2026-05-06 10:57 46.52455 6.64121 1891 ft 18 kts 224°
2026-05-06 10:58 46.52454 6.64131 1883 ft 0 kts 121°